Zum Inhalt springen

Flugplatzwetter

EDAZ 282003Z AUTO 13002KT 9999 NCD 12/10 Q1022 RMK TL60 WND2/16002KT=

4-Tage Wetter

Sonnenauf- und untergangszeiten

Im Folgenden finden Sie eine Übersicht der Sonnenauf- und untergangszeiten der nächsten 14 Tage.

Alle Zeiten local.

Datum Sonnenaufgang
27.09.2021 07:00 18:55
28.09.2021 07:01 18:53
29.09.2021 07:03 18:51
30.09.2021 07:05 18:48
01.10.2021 07:07 18:46
02.10.2021 07:08 18:44
03.10.2021 07:10 18:41
04.10.2021 07:12 18:39
05.10.2021 07:13 18:37
06.10.2021 07:15 18:35
07.10.2021 07:17 18:32
08.10.2021 07:18 18:30
09.10.2021 07:20 18:28
10.10.2021 07:22 18:25
11.10.2021 07:24 18:23
12.10.2021 07:25 18:21